createdAt,value
2022-10-30T00:02:24.633Z,12.71
2022-10-30T00:04:51.127Z,12.65
2022-10-30T00:07:17.550Z,12.71
2022-10-30T00:09:43.937Z,12.70
2022-10-30T00:12:10.363Z,12.59
2022-10-30T00:14:36.872Z,12.57
2022-10-30T00:17:03.332Z,12.64
2022-10-30T00:19:29.754Z,12.60
2022-10-30T00:24:23.285Z,12.59
2022-10-30T00:26:49.786Z,12.53
2022-10-30T00:29:16.165Z,12.45
2022-10-30T00:31:42.533Z,12.40
2022-10-30T00:34:08.835Z,12.47
2022-10-30T00:36:35.825Z,12.50
2022-10-30T00:39:02.354Z,12.40
2022-10-30T00:41:28.861Z,12.41
2022-10-30T00:43:55.163Z,12.42
2022-10-30T00:46:28.130Z,12.33
2022-10-30T00:49:10.596Z,12.32
2022-10-30T00:51:38.973Z,12.32
2022-10-30T00:54:07.247Z,12.45
2022-10-30T00:56:34.116Z,12.41
2022-10-30T00:59:02.999Z,12.33
2022-10-30T01:01:32.331Z,12.21
2022-10-30T01:04:00.176Z,12.22
2022-10-30T01:06:28.827Z,12.19
2022-10-30T01:08:58.979Z,12.20
2022-10-30T01:11:27.002Z,12.21
2022-10-30T01:13:55.094Z,12.25
2022-10-30T01:16:21.389Z,12.14
2022-10-30T01:19:06.811Z,12.11
2022-10-30T01:21:48.514Z,12.24
2022-10-30T01:24:47.969Z,12.15
2022-10-30T01:27:33.843Z,12.18
2022-10-30T01:30:22.743Z,12.07
2022-10-30T01:32:58.732Z,12.01
2022-10-30T01:35:47.105Z,11.96
2022-10-30T01:38:35.452Z,11.91
2022-10-30T01:41:02.095Z,12.00
2022-10-30T01:43:28.570Z,11.89
2022-10-30T01:46:15.696Z,11.85
2022-10-30T01:48:42.011Z,11.84
2022-10-30T01:51:24.530Z,11.81
2022-10-30T01:53:51.206Z,11.77
2022-10-30T01:56:23.621Z,11.75
2022-10-30T01:58:55.149Z,11.77
2022-10-30T02:01:23.800Z,11.91
2022-10-30T02:03:51.216Z,11.94
2022-10-30T02:06:18.909Z,11.90
2022-10-30T02:08:46.575Z,11.90
2022-10-30T02:11:15.094Z,11.85
2022-10-30T02:13:41.897Z,11.84
2022-10-30T02:16:09.198Z,11.85
2022-10-30T02:18:35.921Z,11.87
2022-10-30T02:21:02.873Z,11.77
2022-10-30T02:23:29.276Z,11.69
2022-10-30T02:25:55.715Z,11.67
2022-10-30T02:28:22.070Z,11.68
2022-10-30T02:30:48.707Z,11.72
2022-10-30T02:33:15.195Z,11.72
2022-10-30T02:35:41.646Z,11.77
2022-10-30T02:38:07.994Z,11.81
2022-10-30T02:40:34.365Z,11.81
2022-10-30T02:43:01.903Z,11.90
2022-10-30T02:45:29.297Z,11.89
2022-10-30T02:47:56.217Z,11.87
2022-10-30T02:50:22.921Z,11.76
2022-10-30T02:52:51.264Z,11.77
2022-10-30T02:55:17.871Z,11.84
2022-10-30T02:57:44.446Z,11.81
2022-10-30T03:00:11.358Z,11.75
2022-10-30T03:02:37.746Z,11.76
2022-10-30T03:05:04.286Z,11.73
2022-10-30T03:07:31.563Z,11.76
2022-10-30T03:09:57.948Z,11.71
2022-10-30T03:12:24.330Z,11.64
2022-10-30T03:15:00.149Z,11.71
2022-10-30T03:17:35.961Z,11.70
2022-10-30T03:20:02.372Z,11.71
2022-10-30T03:22:29.837Z,11.73
2022-10-30T03:24:57.743Z,11.64
2022-10-30T03:27:24.046Z,11.61
2022-10-30T03:29:50.571Z,11.53
2022-10-30T03:32:16.967Z,11.58
2022-10-30T03:34:46.858Z,11.68
2022-10-30T03:37:13.223Z,11.61
2022-10-30T03:39:39.857Z,11.46
2022-10-30T03:42:06.225Z,11.49
2022-10-30T03:44:32.617Z,11.43
2022-10-30T03:46:59.056Z,11.44
2022-10-30T03:49:32.616Z,11.35
2022-10-30T03:52:01.410Z,11.44
2022-10-30T03:54:27.798Z,11.32
2022-10-30T03:56:54.291Z,11.31
2022-10-30T03:59:22.340Z,11.39
2022-10-30T04:02:10.414Z,11.39
2022-10-30T04:04:37.042Z,11.55
2022-10-30T04:07:03.387Z,11.51
2022-10-30T04:09:29.799Z,11.49
2022-10-30T04:11:56.438Z,11.48
2022-10-30T04:14:22.822Z,11.42
2022-10-30T04:16:49.160Z,11.40
2022-10-30T04:19:15.582Z,11.44
2022-10-30T04:21:47.646Z,11.39
2022-10-30T04:24:16.732Z,11.42
2022-10-30T04:26:44.995Z,11.45
2022-10-30T04:29:11.473Z,11.38
2022-10-30T04:31:37.805Z,11.28
2022-10-30T04:34:04.170Z,11.32
2022-10-30T04:36:33.815Z,11.30
2022-10-30T04:39:00.669Z,11.30
2022-10-30T04:41:27.929Z,11.27
2022-10-30T04:44:02.483Z,11.34
2022-10-30T04:46:31.904Z,11.36
2022-10-30T04:49:05.371Z,11.27
2022-10-30T04:51:31.722Z,11.30
2022-10-30T04:53:58.664Z,11.30
2022-10-30T04:56:26.238Z,11.32
2022-10-30T04:58:53.410Z,11.36
2022-10-30T05:01:20.164Z,11.27
2022-10-30T05:03:48.131Z,11.29
2022-10-30T05:06:24.809Z,11.31
2022-10-30T05:08:51.319Z,11.36
2022-10-30T05:11:27.813Z,11.33
2022-10-30T05:13:55.100Z,11.31
2022-10-30T05:16:21.466Z,11.23
2022-10-30T05:18:47.968Z,11.34
2022-10-30T05:21:14.483Z,11.24
2022-10-30T05:23:40.932Z,11.18
2022-10-30T05:26:07.364Z,11.19
2022-10-30T05:28:34.268Z,11.20
2022-10-30T05:31:00.583Z,11.27
2022-10-30T05:33:47.216Z,11.28
2022-10-30T05:36:13.748Z,11.26
2022-10-30T05:38:41.002Z,11.34
2022-10-30T05:41:11.340Z,11.17
2022-10-30T05:43:37.788Z,11.16
2022-10-30T05:46:04.198Z,11.08
2022-10-30T05:48:31.266Z,11.10
2022-10-30T05:50:57.693Z,11.12
2022-10-30T05:53:27.418Z,11.12
2022-10-30T05:55:58.951Z,11.16
2022-10-30T05:58:29.426Z,11.24
2022-10-30T06:00:58.128Z,11.15
2022-10-30T06:03:38.687Z,11.15
2022-10-30T06:06:05.889Z,11.09
2022-10-30T06:08:32.225Z,11.00
2022-10-30T06:11:02.504Z,11.06
2022-10-30T06:13:36.248Z,11.00
2022-10-30T06:16:08.708Z,10.95
2022-10-30T06:19:17.484Z,10.93
2022-10-30T06:21:45.922Z,10.98
2022-10-30T06:24:35.242Z,10.95
2022-10-30T06:27:24.584Z,10.95
2022-10-30T06:29:51.117Z,10.98
2022-10-30T06:32:17.479Z,10.93
2022-10-30T06:34:44.842Z,10.95
2022-10-30T06:37:12.877Z,10.96
2022-10-30T06:39:39.796Z,10.93
2022-10-30T06:42:32.261Z,10.95
2022-10-30T06:45:08.006Z,11.03
2022-10-30T06:47:35.563Z,11.00
2022-10-30T06:50:03.135Z,11.04
2022-10-30T06:52:30.180Z,11.07
2022-10-30T06:54:56.506Z,11.06
2022-10-30T06:57:53.846Z,11.19
2022-10-30T07:00:46.804Z,11.20
2022-10-30T07:03:34.717Z,11.29
2022-10-30T07:06:01.767Z,11.24
2022-10-30T07:08:28.333Z,11.17
2022-10-30T07:10:56.779Z,11.21
2022-10-30T07:13:42.955Z,11.40
2022-10-30T07:16:29.147Z,11.34
2022-10-30T07:18:58.232Z,11.38
2022-10-30T07:21:27.092Z,11.45
2022-10-30T07:23:53.426Z,11.59
2022-10-30T07:26:39.412Z,11.64
2022-10-30T07:29:23.107Z,11.72
2022-10-30T07:32:11.679Z,11.78
2022-10-30T07:34:56.779Z,11.87
2022-10-30T07:37:52.759Z,11.88
2022-10-30T07:40:20.270Z,11.94
2022-10-30T07:42:57.071Z,11.91
2022-10-30T07:45:32.412Z,11.92
2022-10-30T07:48:17.197Z,12.01
2022-10-30T07:50:55.718Z,12.12
2022-10-30T07:53:22.272Z,12.18
2022-10-30T07:55:49.467Z,12.30
2022-10-30T07:58:34.459Z,12.34
2022-10-30T08:01:34.894Z,12.36
2022-10-30T08:04:21.594Z,12.62
2022-10-30T08:06:48.009Z,12.61
2022-10-30T08:09:14.358Z,12.69
2022-10-30T08:11:40.815Z,12.82
2022-10-30T08:14:07.323Z,12.97
2022-10-30T08:16:33.688Z,13.09
2022-10-30T08:19:00.342Z,13.14
2022-10-30T08:21:27.272Z,13.27
2022-10-30T08:23:58.045Z,13.35
2022-10-30T08:26:27.505Z,13.44
2022-10-30T08:28:54.234Z,13.49
2022-10-30T08:31:21.912Z,13.59
2022-10-30T08:34:20.245Z,13.76
2022-10-30T08:36:51.479Z,13.99
2022-10-30T08:39:18.935Z,14.07
2022-10-30T08:41:52.331Z,14.07
2022-10-30T08:44:20.017Z,14.17
2022-10-30T08:47:06.511Z,15.03
2022-10-30T08:49:32.883Z,15.74
2022-10-30T08:52:01.366Z,16.33
2022-10-30T08:54:27.745Z,16.77
2022-10-30T08:56:54.812Z,17.24
2022-10-30T08:59:22.619Z,17.50
2022-10-30T09:01:51.313Z,17.94
2022-10-30T09:04:18.383Z,18.29
2022-10-30T09:07:13.582Z,19.01
2022-10-30T09:10:09.029Z,19.47
2022-10-30T09:12:36.908Z,20.00
2022-10-30T09:15:03.736Z,20.32
2022-10-30T09:17:37.784Z,20.88
2022-10-30T09:20:04.389Z,20.77
2022-10-30T09:22:39.688Z,20.61
2022-10-30T09:25:06.269Z,20.95
2022-10-30T09:27:55.599Z,20.77
2022-10-30T09:30:25.162Z,21.58
2022-10-30T09:32:56.544Z,22.05
2022-10-30T09:35:30.989Z,22.53
2022-10-30T09:37:57.665Z,23.00
2022-10-30T09:40:59.895Z,22.35
2022-10-30T09:43:29.553Z,22.52
2022-10-30T09:46:05.197Z,22.36
2022-10-30T09:48:50.425Z,21.41
2022-10-30T09:51:38.156Z,20.79
2022-10-30T09:54:09.085Z,20.71
2022-10-30T09:56:51.431Z,21.26
2022-10-30T09:59:17.781Z,21.35
2022-10-30T10:01:53.994Z,21.16
2022-10-30T10:04:27.620Z,21.88
2022-10-30T10:07:22.678Z,21.66
2022-10-30T10:10:05.464Z,21.79
2022-10-30T10:12:49.599Z,21.52
2022-10-30T10:15:28.232Z,22.16
2022-10-30T10:17:55.145Z,21.72
2022-10-30T10:20:32.546Z,21.71
2022-10-30T10:23:03.476Z,21.23
2022-10-30T10:25:30.914Z,21.15
2022-10-30T10:27:57.249Z,20.80
2022-10-30T10:30:24.278Z,21.04
2022-10-30T10:33:29.610Z,21.23
2022-10-30T10:36:02.530Z,21.12
2022-10-30T10:38:38.784Z,21.62
2022-10-30T10:41:23.836Z,21.63
2022-10-30T10:44:05.348Z,21.68
2022-10-30T10:46:31.653Z,21.59
2022-10-30T10:49:00.999Z,21.66
2022-10-30T10:51:31.692Z,21.01
2022-10-30T10:54:00.605Z,20.80
2022-10-30T10:56:33.683Z,20.72
2022-10-30T10:59:03.251Z,21.03
2022-10-30T11:01:36.984Z,21.27
2022-10-30T11:04:05.547Z,20.74
2022-10-30T11:06:34.812Z,20.57
2022-10-30T11:09:19.817Z,20.45
2022-10-30T11:11:47.007Z,20.65
2022-10-30T11:14:14.876Z,20.68
2022-10-30T11:16:56.581Z,20.28
2022-10-30T11:19:23.090Z,20.62
2022-10-30T11:21:51.656Z,20.48
2022-10-30T11:24:27.321Z,20.24
2022-10-30T11:26:55.126Z,20.17
2022-10-30T11:29:25.988Z,20.17
2022-10-30T11:32:01.611Z,20.14
2022-10-30T11:34:31.176Z,20.11
2022-10-30T11:36:57.964Z,20.09
2022-10-30T11:39:25.696Z,20.18
2022-10-30T11:41:56.813Z,20.31
2022-10-30T11:44:25.215Z,20.67
2022-10-30T11:46:51.746Z,20.77
2022-10-30T11:49:44.922Z,20.41
2022-10-30T11:52:12.635Z,20.46
2022-10-30T11:54:40.783Z,20.90
2022-10-30T11:57:22.763Z,20.98
2022-10-30T11:59:51.693Z,20.70
2022-10-30T12:02:22.431Z,21.17
2022-10-30T12:04:50.237Z,21.02
2022-10-30T12:07:25.617Z,21.39
2022-10-30T12:09:51.925Z,21.66
2022-10-30T12:12:18.247Z,21.83
2022-10-30T12:14:44.660Z,21.81
2022-10-30T12:17:14.158Z,22.20
2022-10-30T12:19:45.222Z,22.14
2022-10-30T12:22:23.923Z,22.29
2022-10-30T12:24:50.971Z,22.28
2022-10-30T12:27:21.392Z,22.54
2022-10-30T12:30:10.312Z,22.77
2022-10-30T12:32:52.681Z,22.88
2022-10-30T12:35:21.784Z,22.52
2022-10-30T12:37:50.615Z,22.47
2022-10-30T12:40:21.266Z,22.43
2022-10-30T12:43:00.882Z,22.57
2022-10-30T12:45:41.059Z,23.32
2022-10-30T12:48:10.960Z,23.89
2022-10-30T12:50:42.853Z,23.91
2022-10-30T12:53:27.898Z,23.81
2022-10-30T12:56:03.728Z,24.40
2022-10-30T12:58:30.428Z,24.24
2022-10-30T13:01:17.090Z,24.09
2022-10-30T13:03:50.805Z,23.89
2022-10-30T13:06:19.105Z,23.98
2022-10-30T13:09:04.378Z,23.58
2022-10-30T13:11:36.945Z,23.51
2022-10-30T13:14:04.371Z,23.33
2022-10-30T13:16:31.635Z,23.45
2022-10-30T13:19:00.112Z,23.69
2022-10-30T13:21:47.741Z,23.69
2022-10-30T13:24:26.300Z,23.26
2022-10-30T13:26:56.121Z,23.26
2022-10-30T13:29:37.475Z,23.37
2022-10-30T13:32:13.807Z,23.59
2022-10-30T13:34:55.783Z,23.78
2022-10-30T13:37:27.204Z,23.83
2022-10-30T13:40:25.758Z,24.01
2022-10-30T13:43:01.088Z,23.81
2022-10-30T13:45:27.508Z,24.33
2022-10-30T13:48:10.209Z,24.34
2022-10-30T13:50:55.460Z,24.56
2022-10-30T13:53:26.228Z,24.86
2022-10-30T13:55:54.401Z,25.02
2022-10-30T13:58:26.381Z,25.47
2022-10-30T14:01:04.689Z,25.50
2022-10-30T14:03:40.138Z,25.87
2022-10-30T14:06:13.667Z,26.05
2022-10-30T14:08:43.277Z,25.87
2022-10-30T14:11:12.379Z,26.03
2022-10-30T14:13:46.255Z,25.81
2022-10-30T14:16:31.250Z,25.48
2022-10-30T14:18:57.620Z,25.69
2022-10-30T14:21:29.991Z,25.73
2022-10-30T14:24:04.047Z,25.65
2022-10-30T14:26:30.607Z,25.12
2022-10-30T14:28:57.096Z,24.76
2022-10-30T14:31:34.039Z,24.68
2022-10-30T14:34:00.522Z,24.58
2022-10-30T14:36:46.859Z,24.68
2022-10-30T14:39:16.150Z,24.09
2022-10-30T14:41:45.604Z,23.96
2022-10-30T14:44:12.161Z,23.65
2022-10-30T14:46:50.359Z,23.28
2022-10-30T14:49:34.852Z,23.23
2022-10-30T14:52:20.337Z,22.44
2022-10-30T14:54:58.952Z,22.35
2022-10-30T14:59:33.705Z,22.00
2022-10-30T15:02:00.242Z,21.97
2022-10-30T15:04:45.481Z,21.74
2022-10-30T15:07:18.772Z,21.38
2022-10-30T15:10:08.573Z,21.15
2022-10-30T15:13:02.345Z,21.12
2022-10-30T15:15:29.527Z,20.30
2022-10-30T15:17:58.315Z,20.95
2022-10-30T15:20:32.293Z,20.15
2022-10-30T15:23:08.684Z,19.87
2022-10-30T15:25:45.652Z,19.94
2022-10-30T15:28:16.864Z,19.48
2022-10-30T15:30:58.110Z,19.14
2022-10-30T15:33:24.441Z,19.25
2022-10-30T15:35:50.741Z,19.23
2022-10-30T15:38:17.058Z,18.92
2022-10-30T15:40:43.765Z,18.93
2022-10-30T15:43:15.671Z,18.84
2022-10-30T15:45:45.910Z,18.38
2022-10-30T15:48:23.403Z,18.42
2022-10-30T15:50:56.002Z,18.35
2022-10-30T15:53:24.892Z,18.08
2022-10-30T15:55:51.397Z,17.83
2022-10-30T15:58:21.511Z,17.82
2022-10-30T16:00:55.361Z,17.51
2022-10-30T16:03:22.228Z,17.76
2022-10-30T16:05:48.779Z,17.49
2022-10-30T16:08:19.238Z,17.40
2022-10-30T16:10:46.524Z,17.31
2022-10-30T16:13:17.799Z,17.37
2022-10-30T16:15:47.274Z,17.04
2022-10-30T16:18:16.566Z,16.76
2022-10-30T16:20:44.199Z,16.67
2022-10-30T16:23:11.894Z,16.59
2022-10-30T16:25:44.461Z,16.46
2022-10-30T16:28:34.399Z,16.38
2022-10-30T16:31:02.520Z,16.32
2022-10-30T16:33:30.466Z,16.35
2022-10-30T16:36:00.322Z,16.34
2022-10-30T16:38:28.130Z,16.20
2022-10-30T16:40:55.019Z,16.09
2022-10-30T16:43:24.483Z,16.03
2022-10-30T16:45:52.339Z,16.02
2022-10-30T16:48:27.733Z,15.92
2022-10-30T16:51:01.596Z,15.81
2022-10-30T16:53:28.702Z,15.81
2022-10-30T16:55:56.247Z,15.83
2022-10-30T16:58:28.043Z,15.69
2022-10-30T17:00:55.551Z,15.59
2022-10-30T17:03:28.226Z,15.59
2022-10-30T17:06:04.386Z,15.53
2022-10-30T17:08:35.198Z,15.63
2022-10-30T17:11:06.154Z,15.56
2022-10-30T17:13:36.050Z,15.46
2022-10-30T17:16:31.966Z,15.38
2022-10-30T17:19:21.169Z,15.46
2022-10-30T17:21:51.872Z,15.43
2022-10-30T17:24:35.026Z,15.32
2022-10-30T17:27:03.408Z,15.20
2022-10-30T17:29:42.074Z,15.03
2022-10-30T17:32:25.520Z,15.03
2022-10-30T17:35:00.649Z,15.02
2022-10-30T17:37:27.699Z,15.11
2022-10-30T17:39:54.493Z,15.06
2022-10-30T17:42:21.030Z,14.87
2022-10-30T17:44:47.884Z,14.81
2022-10-30T17:47:16.859Z,14.83
2022-10-30T17:49:44.099Z,14.78
2022-10-30T17:52:14.983Z,14.79
2022-10-30T17:54:41.897Z,14.76
2022-10-30T17:57:12.086Z,14.76
2022-10-30T17:59:39.437Z,14.67
2022-10-30T18:02:16.284Z,14.68
2022-10-30T18:04:44.173Z,14.70
2022-10-30T18:07:11.574Z,14.63
2022-10-30T18:09:38.882Z,14.55
2022-10-30T18:12:06.465Z,14.56
2022-10-30T18:14:33.338Z,14.53
2022-10-30T18:17:00.372Z,14.50
2022-10-30T18:19:27.407Z,14.47
2022-10-30T18:21:54.730Z,14.32
2022-10-30T18:24:21.569Z,14.28
2022-10-30T18:26:48.131Z,14.14
2022-10-30T18:29:14.812Z,14.12
2022-10-30T18:31:41.387Z,14.10
2022-10-30T18:34:14.410Z,14.05
2022-10-30T18:36:41.368Z,13.91
2022-10-30T18:39:08.104Z,13.94
2022-10-30T18:41:36.767Z,13.91
2022-10-30T18:44:03.627Z,13.92
2022-10-30T18:46:31.052Z,13.89
2022-10-30T18:48:57.858Z,13.86
2022-10-30T18:51:25.597Z,13.82
2022-10-30T18:53:52.718Z,13.75
2022-10-30T18:56:23.635Z,13.69
2022-10-30T18:58:54.759Z,13.68
2022-10-30T19:01:25.289Z,13.73
2022-10-30T19:03:51.870Z,13.80
2022-10-30T19:06:20.248Z,13.74
2022-10-30T19:08:48.025Z,13.62
2022-10-30T19:11:18.771Z,13.66
2022-10-30T19:13:48.887Z,13.73
2022-10-30T19:16:17.291Z,13.76
2022-10-30T19:18:44.139Z,13.62
2022-10-30T19:21:21.242Z,13.59
2022-10-30T19:23:48.409Z,13.55
2022-10-30T19:26:16.269Z,13.50
2022-10-30T19:28:43.812Z,13.52
2022-10-30T19:31:15.026Z,13.53
2022-10-30T19:33:42.156Z,13.45
2022-10-30T19:36:27.382Z,13.40
2022-10-30T19:38:54.513Z,13.36
2022-10-30T19:41:21.105Z,13.31
2022-10-30T19:43:47.845Z,13.25
2022-10-30T19:46:14.915Z,13.17
2022-10-30T19:48:58.571Z,13.14
2022-10-30T19:51:27.225Z,13.09
2022-10-30T19:53:53.960Z,13.09
2022-10-30T19:56:21.164Z,13.16
2022-10-30T19:59:13.722Z,13.16
2022-10-30T20:01:41.514Z,13.04
2022-10-30T20:04:08.580Z,13.14
2022-10-30T20:06:35.309Z,13.02
2022-10-30T20:09:02.722Z,13.04
2022-10-30T20:11:29.437Z,13.12
2022-10-30T20:13:56.102Z,12.97
2022-10-30T20:16:22.870Z,12.98
2022-10-30T20:18:50.785Z,13.00
2022-10-30T20:21:19.228Z,12.95
2022-10-30T20:23:46.050Z,12.96
2022-10-30T20:26:18.754Z,12.93
2022-10-30T20:28:45.190Z,12.86
2022-10-30T20:31:12.294Z,12.88
2022-10-30T20:33:38.821Z,12.85
2022-10-30T20:36:05.747Z,12.77
2022-10-30T20:38:33.141Z,12.76
2022-10-30T20:41:00.384Z,12.67
2022-10-30T20:43:31.741Z,12.62
2022-10-30T20:45:59.168Z,12.56
2022-10-30T20:48:26.011Z,12.55
2022-10-30T20:50:52.836Z,12.49
2022-10-30T20:53:19.404Z,12.53
2022-10-30T20:55:45.850Z,12.48
2022-10-30T20:58:12.420Z,12.34
2022-10-30T21:00:38.934Z,12.37
2022-10-30T21:03:06.982Z,12.27
2022-10-30T21:05:49.837Z,12.35
2022-10-30T21:08:16.439Z,12.21
2022-10-30T21:10:42.843Z,12.19
2022-10-30T21:13:10.728Z,12.22
2022-10-30T21:15:39.711Z,12.15
2022-10-30T21:18:06.309Z,12.08
2022-10-30T21:20:32.707Z,11.96
2022-10-30T21:23:00.455Z,11.94
2022-10-30T21:25:26.939Z,11.86
2022-10-30T21:27:55.710Z,11.87
2022-10-30T21:30:22.026Z,11.96
2022-10-30T21:32:48.405Z,11.95
2022-10-30T21:35:14.884Z,11.92
2022-10-30T21:37:41.342Z,11.91
2022-10-30T21:40:08.404Z,11.83
2022-10-30T21:42:34.814Z,11.78
2022-10-30T21:45:01.259Z,11.75
2022-10-30T21:47:28.729Z,11.68
2022-10-30T21:49:55.229Z,11.64
2022-10-30T21:52:22.072Z,11.67
2022-10-30T21:54:48.672Z,11.64
2022-10-30T21:57:15.053Z,11.64
2022-10-30T21:59:42.627Z,11.63
2022-10-30T22:02:13.014Z,11.58
2022-10-30T22:04:39.419Z,11.54
2022-10-30T22:07:05.733Z,11.55
2022-10-30T22:09:32.177Z,11.48
2022-10-30T22:11:58.704Z,11.49
2022-10-30T22:14:25.450Z,11.43
2022-10-30T22:16:51.839Z,11.53
2022-10-30T22:19:18.182Z,11.60
2022-10-30T22:21:44.536Z,11.62
2022-10-30T22:24:12.959Z,11.49
2022-10-30T22:26:39.262Z,11.40
2022-10-30T22:29:05.686Z,11.42
2022-10-30T22:31:32.017Z,11.45
2022-10-30T22:33:59.277Z,11.37
2022-10-30T22:36:26.829Z,11.46
2022-10-30T22:39:00.559Z,11.30
2022-10-30T22:41:29.934Z,11.28
2022-10-30T22:44:00.019Z,11.15
2022-10-30T22:46:27.412Z,11.14
2022-10-30T22:48:54.198Z,11.18
2022-10-30T22:51:20.673Z,11.10
2022-10-30T22:53:48.120Z,11.14
2022-10-30T22:56:17.437Z,11.04
2022-10-30T22:58:44.294Z,11.00
2022-10-30T23:01:10.588Z,10.97
2022-10-30T23:03:37.086Z,10.88
2022-10-30T23:06:03.729Z,10.86
2022-10-30T23:08:30.334Z,10.82
2022-10-30T23:10:56.802Z,10.88
2022-10-30T23:13:23.580Z,10.76
2022-10-30T23:15:50.301Z,10.80
2022-10-30T23:18:17.036Z,10.80
2022-10-30T23:20:44.193Z,10.77
2022-10-30T23:23:10.942Z,10.73
2022-10-30T23:25:38.111Z,10.65
2022-10-30T23:28:05.767Z,10.74
2022-10-30T23:30:32.351Z,10.67
2022-10-30T23:32:59.016Z,10.64
2022-10-30T23:35:25.798Z,10.68
2022-10-30T23:37:52.298Z,10.64
2022-10-30T23:40:18.754Z,10.63
2022-10-30T23:42:45.299Z,10.52
2022-10-30T23:45:11.644Z,10.53
2022-10-30T23:47:42.524Z,10.50
2022-10-30T23:50:09.429Z,10.51
2022-10-30T23:52:35.789Z,10.47
2022-10-30T23:55:02.311Z,10.45
2022-10-30T23:57:28.632Z,10.42
2022-10-30T23:59:54.988Z,10.42
